Terminal Aerodrome Forecast
Issued by NWS

Home | Current Version | Previous Version | Text Only | Print | Product List | Glossary On
Versions: 1 2 3 4 5 6 7 8 9 10 11 12 13 14 15 16 17 18 19 20 21
035
FTUS42 KFFC 251133
TAFFTY
TAF
KFTY 251133Z 2512/2612 33006KT P6SM BKN250
     FM251800 32012G18KT P6SM BKN150
     FM260000 34005KT P6SM BKN250
     FM260900 02003KT P6SM BKN250=

USA.gov is the U.S. government's official web portal to all federal, state and local government web resources and services.